• Join FlightAware (Why Join?)
  • Login
  • US Flag 
06:30AM EST


 

Airport Tracker/Info


-or-


 

Live Flight TrackerFlight Track Log ✈ ASQ6115 ✈ 20-Sep-2013 ✈ KIAH - KBNA

Flight Track Log - Related Links

Times and Time Zones

All times are in EDT time to prevent confusion due to time zone crossing. See the ASQ6115 flight status page for this flight to view local times or setup timezone preferences in your user account.

Time Position Orientation Groundspeed Altitude Reporting Facility
EDT Latitude Longitude Course Direction KTS MPH feet Rate Location/Type
09:24AM 29.9767 -95.3008 32° Northeast 152 175 500  Level Houston Center
09:25AM 29.9928 -95.2792 49° Northeast 188 216 1,300 1,320 Climbing Houston Center
09:25AM 30.0311 -95.2772 North 247 284 2,000 1,320 Climbing Houston Center
09:26AM 30.0575 -95.2747 North 239 275 2,700 2,220 Climbing Houston Center
09:26AM 30.1019 -95.2686 North 247 284 4,300 1,920 Climbing Houston Center
09:27AM 30.2047 -95.0632 41° Northeast  Level Estimated
09:27AM 30.1275 -95.2675 North 249 287 4,700  Level Houston Center
09:27AM 30.1789 -95.2617 North 286 329 6,000 2,220 Climbing Houston Center
09:28AM 30.2779 -94.9702 35° Northeast  Level Estimated
09:28AM 30.2217 -95.2583 North 279 321 7,000  Level Houston Center
09:29AM 30.3511 -94.8770 32° Northeast  Level Estimated
09:29AM 30.3058 -95.2519 North 300 345 8,700  Level Houston Center
09:30AM 30.3933 -95.2583 356° North 314 361 10,300 1,080 Climbing Houston Center
09:31AM 30.4817 -95.2622 358° North 337 388 11,000 780 Climbing Houston Center
09:32AM 30.5989 -95.2217 17° North 390 449 12,000 960 Climbing Houston Center
09:33AM 30.6917 -95.1536 32° Northeast 391 450 13,000 1,140 Climbing Houston Center
09:34AM 30.7833 -95.0864 32° Northeast 389 448 14,400 1,320 Climbing Houston Center
09:35AM 30.8522 -94.9953 49° Northeast 380 437 15,800 1,260 Climbing Houston Center
09:36AM 30.9083 -94.8950 57° Northeast 372 428 17,000 1,020 Climbing Houston Center
09:37AM 30.9847 -94.8103 44° Northeast 383 441 17,900 840 Climbing Houston Center
09:38AM 31.0739 -94.7314 37° Northeast 401 461 18,800 840 Climbing Houston Center
09:39AM 31.2175 -94.6031 37° Northeast 412 474 20,100 780 Climbing Fort Worth Center
09:40AM 31.2694 -94.5575 37° Northeast 416 479 20,500 780 Climbing Houston Center
09:41AM 31.3603 -94.4781 37° Northeast 412 474 21,300 780 Climbing Houston Center
09:42AM 31.4525 -94.3964 37° Northeast 415 478 22,100 780 Climbing Houston Center
09:43AM 31.5439 -94.3142 37° Northeast 415 478 22,900 900 Climbing Houston Center
09:44AM 31.6544 -94.2161 37° Northeast 414 476 24,000 960 Climbing Houston Center
09:45AM 31.7450 -94.1339 38° Northeast 412 474 24,900 780 Climbing Houston Center
09:46AM 31.8275 -94.0600 37° Northeast 408 470 25,700 780 Climbing Houston Center
09:47AM 31.9175 -93.9794 37° Northeast 406 467 26,600 840 Climbing Houston Center
09:48AM 32.0056 -93.9000 37° Northeast 401 461 27,500 900 Climbing Houston Center
09:49AM 32.1003 -93.8136 38° Northeast 399 459 28,500 720 Climbing Houston Center
09:50AM 32.1878 -93.7322 38° Northeast 399 459 29,000 180 Climbing Houston Center
09:51AM 32.2992 -93.5867 48° Northeast 415 478 29,000  Level Fort Worth Center
09:52AM 32.3817 -93.4800 47° Northeast 422 486 29,000  Level Fort Worth Center
09:53AM 32.4681 -93.3728 46° Northeast 435 501 29,000  Level Fort Worth Center
09:54AM 32.5561 -93.2581 48° Northeast 443 510 29,000 300 Level Fort Worth Center
09:55AM 32.6375 -93.1358 52° Northeast 454 522 29,600 900 Climbing Fort Worth Center
09:56AM 32.7128 -93.0139 54° Northeast 460 529 30,900 660 Climbing Fort Worth Center
09:57AM 32.7836 -92.8992 54° Northeast 447 514 31,000 240 Climbing Fort Worth Center
09:58AM 32.8583 -92.7717 55° Northeast 447 514 31,400 660 Climbing Fort Worth Center
09:59AM 32.9311 -92.6542 54° Northeast 447 514 32,400 960 Climbing Fort Worth Center
10:00AM 32.9997 -92.5342 56° Northeast 440 506 33,400 720 Climbing Fort Worth Center
10:03AM 33.1733 -92.2486 54° Northeast 422 486 35,000 420 Climbing Memphis Center
10:04AM 33.2397 -92.1406 54° Northeast 440 506 35,000  Level Memphis Center
10:05AM 33.3164 -92.0153 54° Northeast 455 524 35,000  Level Memphis Center
10:06AM 33.3892 -91.8897 55° Northeast 460 529 35,000  Level Memphis Center
10:07AM 33.4614 -91.7692 54° Northeast 454 522 35,000  Level Memphis Center
10:08AM 33.5339 -91.6331 57° Northeast 441 507 35,000  Level Memphis Center
10:09AM 33.6081 -91.5094 54° Northeast 441 507 35,000  Level Memphis Center
10:10AM 33.6781 -91.3856 56° Northeast 448 516 35,000  Level Memphis Center
10:11AM 33.7542 -91.2617 54° Northeast 448 516 35,000  Level Memphis Center
10:12AM 33.8261 -91.1322 56° Northeast 453 521 35,000  Level Memphis Center
10:13AM 33.8997 -91.0053 55° Northeast 458 527 35,000  Level Memphis Center
10:14AM 33.9756 -90.8731 55° Northeast 472 543 35,000  Level Memphis Center
10:15AM 34.0511 -90.7433 55° Northeast 472 543 35,000  Level Memphis Center
10:16AM 34.1181 -90.6256 56° Northeast 472 543 35,000  Level Memphis Center
10:17AM 34.1914 -90.4978 55° Northeast 467 537 35,000  Level Memphis Center
10:18AM 34.2625 -90.3697 56° Northeast 462 532 35,000  Level Memphis Center
10:19AM 34.3356 -90.2414 55° Northeast 457 526 35,000  Level Memphis Center
10:20AM 34.4061 -90.1156 56° Northeast 458 527 35,000  Level Memphis Center
10:21AM 34.4789 -89.9817 57° Northeast 463 533 35,000  Level Memphis Center
10:22AM 34.5514 -89.8528 56° Northeast 463 533 35,000  Level Memphis Center
10:23AM 34.6197 -89.7261 57° Northeast 456 525 35,000  Level Memphis Center
10:24AM 34.6919 -89.5944 56° Northeast 464 534 35,000  Level Memphis Center
10:25AM 34.7661 -89.4622 56° Northeast 464 534 35,000  Level Memphis Center
10:26AM 34.8383 -89.3325 56° Northeast 464 534 35,000  Level Memphis Center
10:27AM 34.9103 -89.2050 55° Northeast 464 534 35,000  Level Memphis Center
10:28AM 34.9839 -89.0719 56° Northeast 464 534 35,000  Level Memphis Center
10:29AM 35.0636 -88.9261 56° Northeast 464 534 35,000  Level Memphis Center
10:30AM 35.1392 -88.7903 56° Northeast 469 540 35,000 -60 Level Memphis Center
10:31AM 35.2083 -88.6569 58° Northeast 463 533 34,900 -840 Descending Memphis Center
10:32AM 35.2817 -88.5231 56° Northeast 463 533 33,400 -1,440 Descending Memphis Center
10:33AM 35.3444 -88.4122 55° Northeast 457 526 32,100 -1,500 Descending Memphis Center
10:34AM 35.4172 -88.2653 59° Northeast 457 526 30,500 -1,560 Descending Memphis Center
10:35AM 35.4881 -88.1386 55° Northeast 457 526 29,000 -1,500 Descending Memphis Center
10:36AM 35.5608 -88.0092 55° Northeast 452 520 27,500 -1,980 Descending Memphis Center
10:37AM 35.6289 -87.8719 59° Northeast 457 526 25,100 -2,400 Descending Memphis Center
10:38AM 35.6994 -87.7419 56° Northeast 460 529 22,700 -2,460 Descending Memphis Center
10:39AM 35.7633 -87.6194 57° Northeast 437 503 20,200 -2,460 Descending Memphis Center
10:40AM 35.8192 -87.5000 60° Northeast 418 481 17,800 -2,460 Descending Memphis Center
10:41AM 35.8661 -87.3728 65° Northeast 403 464 15,300 -1,980 Descending Memphis Center
10:42AM 35.9092 -87.2611 65° Northeast 392 451 13,900 -1,620 Descending Memphis Center
10:43AM 35.9542 -87.1364 66° East 397 457 12,100 -1,500 Descending Memphis Center
10:44AM 35.9972 -87.0294 64° Northeast 374 430 10,900 -1,380 Descending Memphis Center
10:45AM 36.0383 -86.9328 62° Northeast 330 380 9,400 -2,040 Descending Memphis Center
10:47AM 36.1333 -86.7833 52° Northeast 269 310 5,100 -1,620 Descending Nashville TRACON
10:48AM 36.2003 -86.7614 15° North 245 282 4,600 -780 Descending Memphis Center
10:49AM 36.2533 -86.7231 30° Northeast 227 261 3,500 -1,020 Descending Memphis Center
10:50AM 36.2450 -86.6514 98° East 170 196 2,600 -900 Descending Memphis Center
10:51AM 36.1950 -86.6561 184° South 117 135 1,700 -780 Descending Memphis Center
10:52AM 36.1558 -86.6708 197° South 130 150 1,100 -540 Descending Memphis Center
10:53AM 36.1208 -86.6828 195° South 135 155 700 -420 Descending Memphis Center